To NAV CANADA Home Page Login to a new session Search on AWWS site Feedback and Comments Disclaimer Vers la page française équivalente Tips FAQ What's new on the site To the Forecasts and Observations / NOTAM section To "File a Flight Plan" website Publications and other links Update of the User's profile FIC Telephone Numbers My Weather Data Folder Route Weather Data Regional Weather Data Local Weather Data To the Forecasts and Observations / NOTAM section
Request Generated 07/26/2017 at 04:28:06 UTC . Weather information available at that time is displayed.

METAR/TAF

MONTREAL/ST-HUBERT/QC    (show WxCam)

METAR CYHU 260400Z AUTO VRB02KT 9SM CLR 17/13 A3021 RMK SLP230=
METAR CYHU 260300Z AUTO 27003KT 9SM CLR 19/14 A3020 RMK SLP228
DENSITY ALT 200FT=
METAR CYHU 260200Z AUTO 25004KT 9SM CLR 19/14 A3020 RMK SLP228
DENSITY ALT 200FT=

TAF CYHU 252338Z 2600/2624 VRB03KT P6SM SKC
FM260800 VRB03KT 6SM BR FEW003
FM261100 20007KT P6SM SKC
FM261700 19008KT P6SM BKN030
BECMG 2622/2624 25010G20KT
RMK FCST BASED ON AUTO OBS. NXT FCST BY 260600Z=
Your time UTC time
Weather data provided by Environment Canada and NAV CANADA